Stations météo

Publicité
Madrid, Espagne (8220): Température de l'air & dewpoint: 16.09.2018 06:00:00 - 22.09.2018 06:00:00 (CEST)Madrid, Espagne (8220): Vitesse du vent & gusts: 16.09.2018 06:00:00 - 22.09.2018 06:00:00 (CEST)Madrid, Espagne (8220): Direction du vent: 16.09.2018 06:00:00 - 22.09.2018 06:00:00 (CEST)Madrid, Espagne (8220): Quantités de précipitations: 16.09.2018 06:00:00 - 22.09.2018 06:00:00 (CEST)
Date & Time tt [°C] td [°C] ff [km/h] ff [knt] fx [km/h] fx [knt] dd rr [mm]
22.09.2018 06:00:00 - - - - - - - -
22.09.2018 05:00:00 17,0 9,9 8 4 14 8 NNE 0,0
22.09.2018 04:00:00 17,4 9,6 5 3 9 5 NNW 0,0
22.09.2018 03:00:00 18,5 9,0 3 2 10 6 NNW 0,0
22.09.2018 02:00:00 19,8 8,8 1 1 10 5 N -
22.09.2018 01:00:00 21,6 8,5 5 3 16 9 N 0,0
22.09.2018 00:00:00 24,1 8,5 5 3 28 15 NE 0,0
21.09.2018 23:00:00 25,6 9,4 12 7 25 14 ENE 0,0
21.09.2018 22:00:00 24,6 8,9 9 5 17 9 NE 0,0
21.09.2018 21:00:00 25,4 8,4 1 1 7 4 ESE 0,0
21.09.2018 20:00:00 29,1 9,8 2 1 14 8 SSW -
21.09.2018 19:00:00 30,7 10,0 3 1 14 8 SW 0,0
21.09.2018 18:00:00 32,9 11,4 10 5 22 12 WSW 0,0
21.09.2018 17:00:00 32,6 11,2 5 3 23 13 SW 0,0
21.09.2018 16:00:00 32,3 12,0 4 2 21 11 SW 0,0
21.09.2018 15:00:00 31,1 11,4 5 3 20 11 SSE 0,0
21.09.2018 14:00:00 29,9 11,4 4 2 14 8 ESE -
21.09.2018 13:00:00 28,8 11,3 4 2 13 7 E 0,0
21.09.2018 12:00:00 27,7 11,7 3 2 13 7 NE 0,0
21.09.2018 11:00:00 25,2 11,8 2 1 10 6 ENE 0,0
21.09.2018 10:00:00 23,1 12,7 5 3 9 5 ENE 0,0
21.09.2018 09:00:00 17,7 11,4 5 3 9 5 NNW 0,0
21.09.2018 08:00:00 16,8 10,6 3 1 9 5 E -
21.09.2018 07:00:00 16,6 10,6 8 4 10 5 NE 0,0
21.09.2018 06:00:00 16,6 10,2 5 3 10 6 N 0,0
21.09.2018 05:00:00 17,8 10,4 5 3 12 7 NW 0,0
21.09.2018 04:00:00 18,2 10,5 1 0 5 3 N 0,0
21.09.2018 03:00:00 18,8 10,6 2 1 18 10 N 0,0
21.09.2018 02:00:00 18,8 10,0 3 2 8 5 NNW -
21.09.2018 01:00:00 20,0 10,2 1 1 10 5 NE 0,0
21.09.2018 00:00:00 21,3 9,8 6 3 9 5 E 0,0
20.09.2018 23:00:00 22,4 9,6 4 2 11 6 ENE 0,0
20.09.2018 22:00:00 23,2 8,8 0 0 10 5 W 0,0
20.09.2018 21:00:00 25,1 8,9 6 4 16 9 NNE 0,0
20.09.2018 20:00:00 27,7 8,5 5 3 14 8 N -
20.09.2018 19:00:00 30,4 9,3 6 3 18 10 W 0,0
20.09.2018 18:00:00 32,7 10,6 7 4 22 12 SW 0,0
20.09.2018 17:00:00 32,2 10,9 2 1 21 11 S 0,0
20.09.2018 16:00:00 32,0 12,2 3 1 22 12 S 0,0
20.09.2018 15:00:00 30,4 11,9 6 3 21 11 S 0,0
20.09.2018 14:00:00 29,9 12,7 3 1 19 10 S -
20.09.2018 13:00:00 27,7 12,8 3 2 12 6 ESE 0,0
20.09.2018 12:00:00 27,0 13,8 2 1 11 6 E 0,0
20.09.2018 11:00:00 24,9 13,2 6 3 11 6 ENE 0,0
20.09.2018 10:00:00 22,6 13,7 2 1 9 5 ENE 0,0
20.09.2018 09:00:00 17,6 12,5 2 1 11 6 E 0,0
20.09.2018 08:00:00 16,3 11,2 4 2 10 5 ENE -
20.09.2018 07:00:00 16,7 11,0 2 1 11 6 ENE 0,0
20.09.2018 06:00:00 17,0 11,0 7 4 11 6 ENE 0,0
20.09.2018 05:00:00 16,8 10,6 5 3 9 5 NE 0,0
20.09.2018 04:00:00 17,9 11,2 4 2 6 3 NNW 0,0
20.09.2018 03:00:00 18,4 10,5 0 0 0 0 N 0,0
20.09.2018 02:00:00 19,5 11,6 1 1 13 7 SE -
20.09.2018 01:00:00 20,0 11,0 0 0 7 4 N 0,0
20.09.2018 00:00:00 20,8 11,1 3 2 10 5 NNE 0,0
19.09.2018 23:00:00 21,7 10,8 5 3 8 5 NNW 0,0
19.09.2018 22:00:00 22,8 9,9 1 0 7 4 WNW 0,0
19.09.2018 21:00:00 24,7 9,0 2 1 9 5 NNW 0,0
19.09.2018 20:00:00 28,5 9,2 3 1 10 6 W -
19.09.2018 19:00:00 29,9 9,9 3 2 14 8 ESE 0,0
19.09.2018 18:00:00 31,2 11,6 4 2 13 7 S 0,0
19.09.2018 17:00:00 30,7 11,1 4 2 16 8 SSW 0,0
19.09.2018 16:00:00 30,8 11,7 3 2 16 8 SW 0,0
19.09.2018 15:00:00 29,5 12,0 3 1 16 8 SSW 0,0
19.09.2018 14:00:00 28,8 12,2 3 2 16 9 SSW -
19.09.2018 13:00:00 27,5 13,1 2 1 13 7 WSW 0,0
19.09.2018 12:00:00 25,9 13,1 0 0 9 5 N 0,0
19.09.2018 11:00:00 23,7 13,0 2 1 11 6 W 0,0
19.09.2018 10:00:00 21,4 13,6 0 0 4 2 N 0,0
19.09.2018 09:00:00 16,9 13,3 0 0 8 4 N 0,0
19.09.2018 08:00:00 15,4 12,0 0 0 9 5 N -
19.09.2018 07:00:00 15,8 12,2 0 0 6 4 NNE 0,0
19.09.2018 06:00:00 16,9 12,2 2 1 14 7 WNW 0,0
19.09.2018 05:00:00 16,8 12,3 7 4 10 5 ENE 0,0
19.09.2018 04:00:00 17,2 12,3 7 4 10 5 NE 0,0
19.09.2018 03:00:00 17,6 11,7 4 2 7 4 NE 0,0
19.09.2018 02:00:00 18,8 11,3 3 2 11 6 NW -
19.09.2018 01:00:00 19,5 10,8 6 3 12 6 NE 0,0
19.09.2018 00:00:00 22,2 11,6 5 3 17 9 E 0,0
18.09.2018 23:00:00 22,0 12,0 8 4 15 8 E 0,0
18.09.2018 22:00:00 20,8 10,5 4 2 8 4 N 0,0
18.09.2018 21:00:00 22,1 10,9 5 3 11 6 NE 0,0
18.09.2018 20:00:00 24,8 12,1 4 2 8 4 WNW -
18.09.2018 19:00:00 24,9 12,4 3 1 13 7 WNW 0,0
18.09.2018 18:00:00 25,1 12,0 8 5 17 9 NNW 0,0
18.09.2018 17:00:00 27,6 12,0 11 6 23 12 NNW 0,0
18.09.2018 16:00:00 28,5 13,6 2 1 14 8 WSW 0,0
18.09.2018 15:00:00 28,1 14,7 4 2 19 10 SW 0,0
18.09.2018 14:00:00 27,2 14,6 1 1 14 8 SE -
18.09.2018 13:00:00 26,0 14,1 1 1 11 6 WSW 0,0
18.09.2018 12:00:00 24,3 14,1 4 2 11 6 E 0,0
18.09.2018 11:00:00 22,2 14,0 1 1 11 6 W 0,0
18.09.2018 10:00:00 21,8 14,7 0 0 7 4 E 0,0
18.09.2018 09:00:00 17,2 13,4 2 1 5 3 E 0,0
18.09.2018 08:00:00 17,1 12,6 3 1 7 4 NNW -
18.09.2018 07:00:00 18,1 12,5 3 1 13 7 NNE 0,0
18.09.2018 06:00:00 18,7 13,4 6 4 11 6 E 0,0
18.09.2018 05:00:00 18,1 13,0 5 3 10 5 NE 0,0
18.09.2018 04:00:00 18,3 12,1 5 3 13 7 NE 0,0
18.09.2018 03:00:00 19,0 12,2 9 5 22 12 NE 0,0
18.09.2018 02:00:00 19,5 11,2 12 6 24 13 ENE -
18.09.2018 01:00:00 20,4 11,3 12 6 23 12 ENE 0,0
18.09.2018 00:00:00 21,9 11,3 7 4 26 14 E 0,0
17.09.2018 23:00:00 23,4 12,4 7 4 22 12 SSE 0,0
17.09.2018 22:00:00 24,4 12,0 4 2 23 12 SSE 0,0
17.09.2018 21:00:00 25,6 11,3 5 3 20 11 SSE 0,0
17.09.2018 20:00:00 25,6 11,0 4 2 31 17 SSE -
17.09.2018 19:00:00 28,8 10,9 5 3 19 10 SSE 0,0
17.09.2018 18:00:00 31,0 11,3 3 2 15 8 S 0,0
17.09.2018 17:00:00 30,4 11,3 3 2 19 10 ESE 0,0
17.09.2018 16:00:00 30,9 11,8 6 3 23 12 WSW 0,0
17.09.2018 15:00:00 29,6 12,1 3 2 18 10 S 0,0
17.09.2018 14:00:00 28,2 11,7 1 1 16 9 SE -
17.09.2018 13:00:00 26,7 11,6 4 2 22 12 SSE 0,0
17.09.2018 12:00:00 25,8 11,9 5 3 21 11 E 0,0
17.09.2018 11:00:00 24,8 12,4 12 7 21 11 E 0,0
17.09.2018 10:00:00 23,6 12,8 13 7 21 12 E 0,0
17.09.2018 09:00:00 20,8 12,5 9 5 18 10 ENE 0,0
17.09.2018 08:00:00 18,7 12,0 11 6 18 10 NE -
17.09.2018 07:00:00 19,2 12,2 4 2 13 7 NE 0,0
17.09.2018 06:00:00 19,7 12,4 0 0 11 6 NE 0,0
17.09.2018 05:00:00 18,8 9,6 5 3 18 10 ENE 0,0
17.09.2018 04:00:00 21,6 10,8 7 4 19 11 ESE 0,0
17.09.2018 03:00:00 18,4 8,9 1 1 5 3 SE 0,0
17.09.2018 02:00:00 19,6 8,5 1 1 9 5 S -
17.09.2018 01:00:00 20,4 8,1 3 2 8 4 ENE 0,0
17.09.2018 00:00:00 20,8 7,4 0 0 6 3 N 0,0
16.09.2018 23:00:00 22,1 7,1 3 2 6 3 N 0,0
16.09.2018 22:00:00 23,0 7,1 0 0 0 0 N 0,0
16.09.2018 21:00:00 24,5 7,6 0 0 5 3 N 0,0
16.09.2018 20:00:00 27,9 8,3 3 1 11 6 SW -
16.09.2018 19:00:00 29,9 8,9 2 1 14 8 WNW 0,0
16.09.2018 18:00:00 30,7 9,0 2 1 19 10 E 0,0
16.09.2018 17:00:00 31,8 11,0 6 3 18 10 WSW 0,0
16.09.2018 16:00:00 30,0 11,0 3 2 14 8 WSW 0,0
16.09.2018 15:00:00 29,1 11,7 3 1 14 7 S 0,0
16.09.2018 14:00:00 27,4 12,2 2 1 17 9 SSW -
16.09.2018 13:00:00 26,7 13,1 4 2 16 9 SW 0,0
16.09.2018 12:00:00 24,8 13,1 3 2 10 5 WSW 0,0
16.09.2018 11:00:00 22,6 13,1 0 0 6 3 N 0,0
16.09.2018 10:00:00 20,0 13,3 0 0 0 0 N 0,0
16.09.2018 09:00:00 16,7 13,5 0 0 0 0 N 0,0
16.09.2018 08:00:00 15,5 12,2 0 0 0 0 N -
16.09.2018 07:00:00 16,0 12,5 0 0 5 3 N 0,0
16.09.2018 06:00:00 17,0 13,0 1 1 7 4 SW 0,0

tt = Température de l'air
td = dewpoint
ff = Vitesse du vent
fx = gusts
dd = Direction du vent
rr = Quantités de précipitations

stations d'obs. à proximité